Time;durP1;ratioP1;P1;durP2;ratioP2;P2;SDS_P1;SDS_P2;PMS_P1;PMS_P2;Temp;Humidity;BMP_temperature;BMP_pressure;BME280_temperature;BME280_humidity;BME280_pressure;Samples;Min_cycle;Max_cycle;Signal;HPM_P1;HPM_P2
2023/10/05 00:05:54;;;;;;;16.73;2.95;;;;;;;10.88;72.51;99200.25;4694901;30;20050;-96
2023/10/05 00:11:53;;;;;;;4.68;2.28;;;;;;;10.09;72.74;99080.81;4660259;30;20051;-93
2023/10/05 00:18:33;;;;;;;4.53;2.30;;;;;;;10.78;73.04;99203.28;4665868;30;19940;-95
2023/10/05 00:26:50;;;;;;;5.53;2.45;;;;;;;10.43;73.52;99153.97;4649431;30;20171;-94
2023/10/05 00:29:41;;;;;;;15.70;2.92;;;;;;;9.95;73.50;99074.69;4645973;30;20066;-95
2023/10/05 00:32:57;;;;;;;6.38;2.90;;;;;;;10.75;73.43;99192.97;4711338;30;20077;-93
2023/10/05 00:45:38;;;;;;;;;;;;;;;;;;;;;
2023/10/05 00:49:15;;;;;;;10.45;3.13;;;;;;;9.86;74.41;99094.53;4881218;29;20053;-96
2023/10/05 00:56:15;;;;;;;7.72;2.63;;;;;;;9.69;74.47;99066.34;4841394;29;20114;-94
2023/10/05 01:14:06;;;;;;;15.95;2.58;;;;;;;9.67;75.88;99110.34;5002128;23;20037;-94
2023/10/05 01:30:42;;;;;;;;;;;;;;;;;;;;;
2023/10/05 01:33:29;;;;;;;6.60;2.42;;;;;;;10.25;76.38;99220.53;4898189;29;20048;-95
2023/10/05 01:36:08;;;;;;;12.98;3.45;;;;;;;9.77;76.58;99147.50;4872880;29;20041;-94
2023/10/05 01:38:37;;;;;;;8.73;3.13;;;;;;;9.47;76.72;99103.47;4870416;29;20048;-94
2023/10/05 01:41:48;;;;;;;7.90;3.28;;;;;;;9.82;76.96;99163.72;4872057;29;20044;-93
2023/10/05 01:44:20;;;;;;;7.88;2.83;;;;;;;9.83;76.95;99171.63;4862628;29;20196;-95
2023/10/05 01:47:23;;;;;;;11.48;2.97;;;;;;;10.18;76.99;99222.91;4887071;29;20045;-94
2023/10/05 01:50:22;;;;;;;6.40;2.50;;;;;;;10.15;77.18;99226.25;4864151;29;20048;-94
2023/10/05 01:53:07;;;;;;;9.85;2.83;;;;;;;9.80;77.34;99177.72;4876221;29;20048;-93
2023/10/05 01:56:03;;;;;;;6.93;2.50;;;;;;;9.92;77.65;99204.44;4865939;29;20107;-94
2023/10/05 01:58:37;;;;;;;6.10;2.58;;;;;;;9.87;77.81;99197.19;4881077;29;20070;-93
2023/10/05 02:01:51;;;;;;;;;;;;;;;;;;;;;
2023/10/05 02:04:49;;;;;;;7.60;2.72;;;;;;;10.00;78.52;99222.81;4865516;29;20064;-94
2023/10/05 02:10:50;;;;;;;5.53;2.75;;;;;;;9.57;78.21;99149.63;4873901;29;20057;-94
2023/10/05 02:14:12;;;;;;;8.10;2.72;;;;;;;9.76;78.44;99181.34;4871381;29;20064;-93
2023/10/05 02:17:09;;;;;;;8.50;2.40;;;;;;;9.08;78.56;99080.41;4868614;29;20073;-94
2023/10/05 02:20:25;;;;;;;11.52;3.13;;;;;;;9.33;78.74;99119.09;4906183;29;20045;-93
2023/10/05 02:23:47;;;;;;;;;;;;;;;;;;;;;
2023/10/05 02:30:48;;;;;;;18.23;2.85;;;;;;;9.44;78.62;99134.09;4835120;29;20051;-95
2023/10/05 02:33:47;;;;;;;10.82;2.95;;;;;;;9.29;78.53;99108.00;4831265;29;20065;-95
2023/10/05 02:37:00;;;;;;;13.30;2.85;;;;;;;9.55;78.58;99151.03;4794717;29;20418;-93
2023/10/05 02:40:15;;;;;;;;;;;;;;;;;;;;;
2023/10/05 02:43:14;;;;;;;11.43;3.08;;;;;;;9.29;79.27;99138.00;4767474;30;20070;-94
2023/10/05 02:45:55;;;;;;;9.63;3.15;;;;;;;9.02;78.94;99092.53;4761669;30;20051;-92
2023/10/05 02:49:06;;;;;;;;;;;;;;;;;;;;;
2023/10/05 02:51:53;;;;;;;16.25;3.55;;;;;;;9.92;78.95;99239.13;4770934;30;20056;-96
2023/10/05 02:54:53;;;;;;;9.40;3.10;;;;;;;9.64;79.10;99195.56;4768772;30;20124;-95
2023/10/05 02:57:59;;;;;;;6.85;3.22;;;;;;;9.01;78.81;99096.38;4785274;29;20089;-93
2023/10/05 03:06:38;;;;;;;8.93;2.70;;;;;;;9.02;78.98;99116.28;4932403;29;20059;-93
2023/10/05 03:09:27;;;;;;;15.10;2.90;;;;;;;9.09;79.18;99133.81;4904794;29;20055;-93
2023/10/05 03:12:20;;;;;;;7.63;2.58;;;;;;;9.02;79.24;99132.63;4883874;29;20498;-94
2023/10/05 03:15:37;;;;;;;7.72;2.92;;;;;;;9.50;79.53;99206.50;4855356;29;20077;-94
2023/10/05 03:18:01;;;;;;;8.98;3.78;;;;;;;9.02;79.60;99136.16;4874089;29;20119;-92
2023/10/05 03:20:46;;;;;;;;;;;;;;;;;;;;;
2023/10/05 03:23:19;;;;;;;7.45;3.03;;;;;;;9.09;80.12;99150.16;4890021;29;20028;-93
2023/10/05 03:25:53;;;;;;;5.30;2.90;;;;;;;9.52;79.94;99209.75;4886945;29;20418;-92
2023/10/05 03:28:30;;;;;;;9.20;3.08;;;;;;;9.27;80.12;99175.69;4884960;29;20036;-93
2023/10/05 03:31:29;;;;;;;;;;;;;;;;;;;;;
2023/10/05 03:34:41;;;;;;;13.68;3.53;;;;;;;8.85;79.96;99111.47;4875528;29;20046;-94
2023/10/05 03:37:56;;;;;;;11.73;2.60;;;;;;;8.83;80.21;99116.41;4848952;29;20026;-93
2023/10/05 03:40:35;;;;;;;7.53;2.63;;;;;;;8.91;80.59;99116.50;4865967;29;20064;-93
2023/10/05 03:43:05;;;;;;;7.72;2.83;;;;;;;8.88;80.70;99119.84;4833480;29;20025;-93
2023/10/05 03:45:44;;;;;;;5.93;2.67;;;;;;;9.37;80.70;99193.72;4842604;29;20057;-94
2023/10/05 03:48:15;;;;;;;12.30;3.03;;;;;;;9.05;80.57;99132.81;4844599;29;20050;-93
2023/10/05 03:50:52;;;;;;;11.38;3.35;;;;;;;9.56;80.66;99213.47;4849186;29;20053;-92
2023/10/05 03:53:48;;;;;;;15.20;3.38;;;;;;;9.31;80.62;99175.88;4882993;29;20037;-93
2023/10/05 03:57:10;;;;;;;7.75;3.20;;;;;;;9.71;80.89;99247.00;4883717;29;20116;-92
2023/10/05 04:03:15;;;;;;;4.88;3.05;;;;;;;9.26;80.65;99178.72;4893511;29;20044;-93
2023/10/05 04:05:45;;;;;;;23.00;3.50;;;;;;;9.38;80.51;99192.63;5327464;23;20089;-91
2023/10/05 04:08:45;;;;;;;12.23;3.80;;;;;;;9.75;80.64;99258.91;5049127;23;20064;-93
2023/10/05 04:14:39;;;;;;;10.33;3.70;;;;;;;9.22;81.35;99183.19;5222388;23;20056;-92
2023/10/05 04:17:43;;;;;;;8.57;3.83;;;;;;;9.61;81.20;99227.00;4940410;29;20056;-94
2023/10/05 04:20:35;;;;;;;10.93;2.88;;;;;;;9.26;81.37;99173.25;4965345;23;20051;-92
2023/10/05 04:23:05;;;;;;;11.02;3.80;;;;;;;9.38;81.28;99187.19;4921746;29;20028;-93
2023/10/05 04:25:40;;;;;;;;;;;;;;;9.94;81.18;99251.34;4892838;29;20024;-93
2023/10/05 04:28:33;;;;;;;11.68;3.58;;;;;;;9.52;80.88;99177.00;4917513;29;19927;-91
2023/10/05 04:31:06;;;;;;;10.57;3.10;;;;;;;9.78;80.44;99209.16;4902504;29;20044;-93
2023/10/05 04:33:59;;;;;;;9.57;3.30;;;;;;;9.74;80.53;99189.88;4890477;29;20047;-93
2023/10/05 04:36:40;;;;;;;10.10;3.22;;;;;;;9.77;80.47;99202.09;4900716;29;20025;-93
2023/10/05 04:39:32;;;;;;;11.27;3.58;;;;;;;9.39;80.41;99135.03;4932830;23;20053;-92
2023/10/05 04:43:04;;;;;;;11.10;3.50;;;;;;;9.49;80.27;99149.53;4892583;29;20045;-94
2023/10/05 04:45:31;;;;;;;6.90;3.33;;;;;;;10.16;80.77;99238.78;4872484;29;20597;-88
2023/10/05 04:48:00;;;;;;;8.65;3.72;;;;;;;10.09;80.25;99237.31;4872827;29;20063;-88
2023/10/05 04:50:26;;;;;;;9.50;3.55;;;;;;;10.23;80.43;99239.16;4870657;29;20037;-88
2023/10/05 04:52:53;;;;;;;5.90;2.93;;;;;;;10.32;80.28;99253.72;4890706;29;20076;-93
2023/10/05 04:55:23;;;;;;;8.95;3.50;;;;;;;10.07;80.14;99214.19;4855187;29;20055;-86
2023/10/05 04:57:50;;;;;;;17.25;3.72;;;;;;;10.19;80.01;99232.72;4885285;29;20043;-89
2023/10/05 05:08:34;;;;;;;12.68;3.78;;;;;;;10.59;81.13;99211.72;4894707;29;20070;-87
2023/10/05 05:11:08;;;;;;;17.30;7.07;;;;;;;10.65;80.45;99190.53;4889260;29;20045;-90
2023/10/05 05:13:36;;;;;;;29.15;9.52;;;;;;;11.29;80.46;99260.06;4894393;29;20128;-87
2023/10/05 05:16:05;;;;;;;24.70;8.77;;;;;;;10.96;76.69;99209.59;4886033;29;20036;-86
2023/10/05 05:18:37;;;;;;;15.65;5.97;;;;;;;10.91;76.89;99212.50;4879802;29;20041;-87
2023/10/05 05:21:07;;;;;;;14.35;5.22;;;;;;;10.94;76.86;99223.59;4865810;29;20045;-88
2023/10/05 05:23:47;;;;;;;17.85;8.27;;;;;;;11.20;76.82;99264.69;4890957;29;20415;-89
2023/10/05 05:26:14;;;;;;;25.17;11.55;;;;;;;10.91;76.69;99226.16;4873494;29;20033;-89
2023/10/05 05:28:43;;;;;;;;;;;;;;;11.30;76.51;99282.75;4870316;29;20104;-88
2023/10/05 05:31:18;;;;;;;47.15;18.65;;;;;;;10.71;76.21;99172.88;4870056;29;19994;-89
2023/10/05 05:33:45;;;;;;;48.83;20.23;;;;;;;11.17;76.48;99246.19;4884999;29;20543;-87
2023/10/05 05:36:17;;;;;;;24.50;7.30;;;;;;;11.02;76.06;99222.81;4887332;29;20053;-87
2023/10/05 05:38:47;;;;;;;13.73;6.40;;;;;;;11.25;75.96;99241.84;4865629;29;20052;-87
2023/10/05 05:41:27;;;;;;;12.68;5.70;;;;;;;11.46;75.71;99285.84;4898948;29;20042;-88
2023/10/05 05:43:53;;;;;;;14.77;5.75;;;;;;;11.55;75.76;99294.88;4890840;29;20060;-87
2023/10/05 05:46:19;;;;;;;15.05;8.30;;;;;;;11.23;75.76;99246.84;4878388;29;20045;-88
2023/10/05 05:48:52;;;;;;;16.70;7.18;;;;;;;11.29;75.74;99260.06;4886355;29;20045;-88
2023/10/05 05:51:24;;;;;;;19.98;6.53;;;;;;;11.55;75.67;99292.13;4868525;29;20048;-88
2023/10/05 05:53:52;;;;;;;19.33;7.50;;;;;;;11.17;75.70;99231.69;4883585;29;20040;-88
2023/10/05 05:56:28;;;;;;;18.10;5.20;;;;;;;11.32;75.64;99255.84;4849332;29;20041;-89
2023/10/05 05:58:55;;;;;;;16.33;5.15;;;;;;;11.31;75.29;99234.31;4890813;29;20080;-87
2023/10/05 06:01:23;;;;;;;12.68;4.78;;;;;;;11.80;75.08;99282.34;4910981;29;20056;-88
2023/10/05 06:03:56;;;;;;;15.13;5.72;;;;;;;11.63;75.15;99252.22;4848606;29;20056;-87
2023/10/05 06:06:23;;;;;;;9.80;5.35;;;;;;;12.02;74.89;99292.38;4871618;29;20029;-90
2023/10/05 06:08:49;;;;;;;18.45;6.78;;;;;;;11.61;74.57;99210.66;4890643;29;20128;-88
2023/10/05 06:11:17;;;;;;;16.13;6.03;;;;;;;11.41;73.95;99177.31;4876758;29;20045;-90
2023/10/05 06:13:45;;;;;;;21.60;5.70;;;;;;;12.17;74.46;99258.97;4891597;29;20045;-88
2023/10/05 06:16:13;;;;;;;22.52;9.77;;;;;;;12.62;73.22;99296.16;4892057;29;20056;-91
2023/10/05 06:18:43;;;;;;;20.15;6.72;;;;;;;12.53;72.03;99267.94;4872264;29;20046;-88
2023/10/05 06:21:13;;;;;;;13.95;5.03;;;;;;;12.67;72.14;99301.44;4872678;29;20043;-87
2023/10/05 06:23:39;;;;;;;13.27;4.80;;;;;;;12.27;71.62;99235.91;4885962;29;20045;-87
2023/10/05 06:26:08;;;;;;;11.52;4.88;;;;;;;12.47;72.09;99275.53;4884042;29;20080;-89
2023/10/05 06:28:34;;;;;;;17.42;5.63;;;;;;;12.43;72.13;99247.97;4856861;29;20037;-90
2023/10/05 06:31:30;;;;;;;15.55;6.70;;;;;;;12.46;71.94;99241.81;4862399;29;20052;-89
2023/10/05 06:33:58;;;;;;;14.40;5.43;;;;;;;12.39;71.67;99227.00;4875013;29;20069;-88
2023/10/05 06:36:25;;;;;;;18.90;4.78;;;;;;;12.96;71.61;99299.91;4876958;29;20059;-89
2023/10/05 06:39:27;;;;;;;15.90;5.43;;;;;;;13.00;71.28;99296.16;4858543;29;20048;-89
2023/10/05 06:41:59;;;;;;;13.77;4.55;;;;;;;12.54;71.05;99231.94;4888353;29;20129;-88
2023/10/05 06:44:55;;;;;;;16.63;4.80;;;;;;;13.04;71.24;99297.09;4884388;29;20136;-88
2023/10/05 06:47:37;;;;;;;10.40;3.97;;;;;;;12.86;70.84;99263.47;4890050;29;20100;-88
2023/10/05 06:50:43;;;;;;;19.10;4.72;;;;;;;13.08;70.83;99302.75;4886528;29;20053;-90
2023/10/05 06:53:13;;;;;;;18.05;4.40;;;;;;;13.06;70.10;99274.84;4891087;29;20061;-89
2023/10/05 06:56:13;;;;;;;12.95;4.50;;;;;;;12.95;70.14;99263.44;4826926;29;20054;-85
2023/10/05 06:58:41;;;;;;;17.75;4.35;;;;;;;13.03;69.95;99250.78;4832688;29;20061;-86
2023/10/05 07:01:21;;;;;;;18.05;4.68;;;;;;;13.12;70.03;99251.56;4801074;29;20056;-85
2023/10/05 07:03:58;;;;;;;12.50;3.50;;;;;;;13.18;69.06;99247.50;4810074;29;20134;-88
2023/10/05 07:06:29;;;;;;;24.27;4.73;;;;;;;13.50;68.08;99289.94;4841672;29;20084;-87
2023/10/05 07:08:56;;;;;;;20.90;4.60;;;;;;;13.60;68.27;99297.78;4832424;29;20520;-87
2023/10/05 07:14:18;;;;;;;12.20;4.00;;;;;;;13.59;67.92;99295.38;4831539;29;20050;-87
2023/10/05 07:16:45;;;;;;;13.45;3.90;;;;;;;13.46;67.67;99277.22;4899352;24;20052;-90
2023/10/05 07:19:17;;;;;;;16.30;4.25;;;;;;;13.70;67.06;99304.03;4894511;29;20068;-87
2023/10/05 07:21:49;;;;;;;15.65;3.70;;;;;;;13.56;67.05;99276.81;4832570;29;20058;-87
2023/10/05 07:27:59;;;;;;;15.00;4.03;;;;;;;13.09;66.13;99187.16;4871221;29;20029;-87
2023/10/05 07:30:28;;;;;;;12.52;4.00;;;;;;;13.82;65.84;99306.88;4842429;29;20037;-87
2023/10/05 07:32:54;;;;;;;10.45;3.53;;;;;;;13.61;65.64;99254.66;4834615;29;20070;-85
2023/10/05 07:35:25;;;;;;;14.65;3.70;;;;;;;13.42;64.72;99230.41;4849268;29;20112;-87
2023/10/05 07:38:57;;;;;;;8.15;3.65;;;;;;;13.75;65.61;99296.41;4858137;29;20061;-87
2023/10/05 07:41:23;;;;;;;14.65;4.07;;;;;;;13.99;64.92;99305.94;4845673;29;20064;-86
2023/10/05 07:43:51;;;;;;;9.43;3.10;;;;;;;13.76;64.03;99265.03;4856076;29;20049;-87
2023/10/05 07:46:18;;;;;;;;;;;;;;;14.12;63.74;99295.78;4832447;29;20073;-85
2023/10/05 07:48:45;;;;;;;15.17;3.47;;;;;;;13.66;64.02;99223.44;4816899;29;19931;-88
2023/10/05 07:51:16;;;;;;;37.63;4.38;;;;;;;13.90;63.25;99264.75;4829533;29;20050;-86
2023/10/05 07:53:47;;;;;;;12.52;3.78;;;;;;;14.19;63.24;99279.56;4894291;29;20047;-85
2023/10/05 07:56:15;;;;;;;14.75;3.55;;;;;;;14.23;62.87;99266.72;4899841;29;20057;-85
2023/10/05 07:58:43;;;;;;;11.30;3.72;;;;;;;14.27;62.02;99251.16;4899607;29;20444;-88
2023/10/05 08:01:19;;;;;;;13.23;3.65;;;;;;;14.32;61.46;99286.72;4853151;29;20049;-85
2023/10/05 08:03:51;;;;;;;;;;;;;;;14.52;61.97;99298.84;4867000;29;20041;-86
2023/10/05 08:06:20;;;;;;;14.18;3.80;;;;;;;14.25;61.48;99254.25;4877754;29;19951;-87
2023/10/05 08:09:07;;;;;;;10.57;3.67;;;;;;;14.44;60.91;99292.25;4878069;29;20044;-86
2023/10/05 08:12:24;;;;;;;8.88;3.45;;;;;;;14.57;61.47;99298.63;4824089;29;20118;-86
2023/10/05 08:14:52;;;;;;;9.43;4.22;;;;;;;14.32;62.08;99257.25;4835492;29;20053;-87
2023/10/05 08:17:20;;;;;;;14.00;3.70;;;;;;;14.70;61.45;99304.94;4846849;29;20073;-85
2023/10/05 08:20:07;;;;;;;8.20;3.33;;;;;;;14.64;60.80;99292.56;4853535;29;20050;-87
2023/10/05 08:22:35;;;;;;;10.38;3.60;;;;;;;14.16;60.11;99208.75;4851739;29;20102;-86
2023/10/05 08:25:57;;;;;;;12.13;3.95;;;;;;;14.78;60.25;99299.34;4852404;29;20061;-86
2023/10/05 08:28:24;;;;;;;13.35;3.78;;;;;;;14.73;60.09;99313.31;4848930;29;20053;-85
2023/10/05 08:31:06;;;;;;;9.13;3.45;;;;;;;14.20;60.91;99248.97;4838110;29;20041;-85
2023/10/05 08:33:39;;;;;;;16.42;3.60;;;;;;;14.41;60.38;99278.38;4843144;29;20042;-86
2023/10/05 08:36:12;;;;;;;8.70;3.30;;;;;;;14.38;60.35;99279.84;4826660;29;20076;-88
2023/10/05 08:38:39;;;;;;;13.38;4.18;;;;;;;14.49;61.35;99310.47;4842354;29;20045;-88
2023/10/05 08:43:56;;;;;;;8.93;3.78;;;;;;;14.31;64.87;99291.41;4843081;29;20802;-87
2023/10/05 08:46:24;;;;;;;12.88;3.50;;;;;;;14.40;64.05;99309.75;4857172;29;20106;-85
2023/10/05 08:48:52;;;;;;;11.55;3.90;;;;;;;14.03;62.60;99262.88;4860916;29;20112;-87
2023/10/05 08:51:30;;;;;;;14.25;3.70;;;;;;;13.78;62.20;99196.84;4882007;29;20045;-87
2023/10/05 08:57:19;;;;;;;11.25;4.07;;;;;;;14.41;60.64;99281.13;4892561;29;20080;-88
2023/10/05 09:00:38;;;;;;;9.95;4.13;;;;;;;14.52;60.63;99307.09;4893837;29;20048;-87
2023/10/05 09:03:29;;;;;;;10.70;3.67;;;;;;;14.36;58.78;99275.81;4895984;29;20045;-90
2023/10/05 09:06:20;;;;;;;15.27;3.95;;;;;;;14.44;59.12;99266.69;4875820;29;20044;-87
2023/10/05 09:09:14;;;;;;;;;;;;;;;14.75;59.46;99300.03;4852022;29;20189;-87
2023/10/05 09:12:46;;;;;;;12.85;3.97;;;;;;;14.97;57.08;99300.78;4872546;29;20066;-85
2023/10/05 09:15:37;;;;;;;12.23;3.80;;;;;;;14.86;57.09;99277.56;4901421;29;20131;-88
2023/10/05 09:20:46;;;;;;;17.52;3.72;;;;;;;14.67;55.56;99247.84;4881295;29;20088;-88
2023/10/05 09:23:59;;;;;;;13.18;3.55;;;;;;;14.54;56.01;99203.03;4885222;29;20068;-86
2023/10/05 09:26:33;;;;;;;10.95;3.47;;;;;;;15.27;57.29;99304.09;4889682;29;20069;-88
2023/10/05 09:29:28;;;;;;;11.52;3.78;;;;;;;15.32;55.41;99292.84;4865156;29;20045;-88
2023/10/05 09:32:08;;;;;;;11.77;3.90;;;;;;;15.23;55.88;99276.44;4877353;29;20036;-88
2023/10/05 09:34:49;;;;;;;14.60;3.72;;;;;;;15.24;54.94;99260.72;4871686;29;20060;-85
2023/10/05 09:37:17;;;;;;;14.75;5.03;;;;;;;15.33;57.20;99263.34;4905301;29;20040;-86
2023/10/05 09:40:15;;;;;;;25.08;5.75;;;;;;;15.24;54.35;99231.25;4898043;29;20047;-87
2023/10/05 09:43:05;;;;;;;17.38;4.80;;;;;;;15.52;55.11;99249.78;4887503;29;20092;-86
2023/10/05 09:46:20;;;;;;;22.55;5.20;;;;;;;15.80;54.41;99290.41;4910666;29;20032;-88
2023/10/05 09:49:14;;;;;;;17.17;5.05;;;;;;;15.62;54.76;99273.28;5216474;23;20066;-87
2023/10/05 09:51:48;;;;;;;12.93;4.78;;;;;;;15.66;54.84;99287.97;4888623;29;20143;-86
2023/10/05 09:54:22;;;;;;;16.43;4.70;;;;;;;15.60;54.78;99281.91;4868528;29;20036;-87
2023/10/05 09:56:51;;;;;;;16.02;4.60;;;;;;;15.54;55.01;99260.47;4873045;29;20040;-86
2023/10/05 09:59:21;;;;;;;12.82;4.47;;;;;;;15.40;54.50;99236.84;4919689;29;20135;-86
2023/10/05 10:01:50;;;;;;;12.95;4.72;;;;;;;15.85;54.76;99295.66;4902626;29;20036;-87
2023/10/05 10:04:35;;;;;;;20.20;6.63;;;;;;;15.93;54.82;99275.44;4876654;29;20052;-87
2023/10/05 10:07:33;;;;;;;14.23;4.05;;;;;;;15.91;53.75;99273.03;4886099;29;20035;-85
2023/10/05 10:10:01;;;;;;;15.18;5.28;;;;;;;15.94;53.30;99268.75;4902306;29;20048;-84
2023/10/05 10:12:44;;;;;;;8.70;3.72;;;;;;;16.09;53.71;99295.59;4894438;29;20032;-86
2023/10/05 10:15:29;;;;;;;12.52;4.40;;;;;;;15.92;53.56;99296.66;4874199;29;20257;-85
2023/10/05 10:19:20;;;;;;;12.35;3.90;;;;;;;15.78;53.71;99293.50;4885911;29;20067;-87
2023/10/05 10:22:07;;;;;;;12.77;4.05;;;;;;;15.69;53.30;99287.31;4908259;29;20040;-88
2023/10/05 10:24:45;;;;;;;12.45;4.40;;;;;;;15.62;54.19;99292.59;4884700;29;20051;-87
2023/10/05 10:27:15;;;;;;;;;;;;;;;15.63;52.86;99288.66;4908799;29;20127;-86
2023/10/05 10:29:45;;;;;;;7.47;3.10;;;;;;;15.46;52.68;99259.44;4902945;29;19930;-87
2023/10/05 10:32:34;;;;;;;20.98;5.55;;;;;;;15.72;52.58;99295.69;4890019;29;20040;-86
2023/10/05 10:35:13;;;;;;;9.82;3.83;;;;;;;15.76;53.15;99292.25;4901018;29;20124;-87
2023/10/05 10:37:45;;;;;;;12.30;3.70;;;;;;;15.43;53.80;99263.69;4891288;29;20036;-87
2023/10/05 10:40:47;;;;;;;10.77;3.75;;;;;;;15.54;54.43;99293.53;4880953;29;20044;-86
2023/10/05 10:47:52;;;;;;;12.35;4.97;;;;;;;15.59;55.02;99238.16;4919992;29;20115;-86
2023/10/05 10:50:45;;;;;;;13.48;3.78;;;;;;;15.70;56.97;99305.47;4882730;29;20052;-87
2023/10/05 10:53:18;;;;;;;10.27;3.30;;;;;;;15.18;60.48;99309.72;4878917;29;20286;-87
2023/10/05 10:59:19;;;;;;;10.68;3.22;;;;;;;14.50;63.91;99279.94;4854395;29;20049;-86
2023/10/05 11:01:59;;;;;;;10.00;3.33;;;;;;;14.65;64.30;99305.97;4824564;29;20215;-85
2023/10/05 11:04:36;;;;;;;14.25;3.42;;;;;;;14.54;64.94;99310.31;4860051;29;20562;-87
2023/10/05 11:07:06;;;;;;;10.48;3.17;;;;;;;14.58;64.52;99305.72;4864099;29;20139;-85
2023/10/05 11:09:47;;;;;;;9.23;3.67;;;;;;;14.49;64.14;99304.97;4849228;29;20485;-87
2023/10/05 11:12:17;;;;;;;10.93;3.13;;;;;;;14.44;64.61;99299.72;4869352;29;20072;-86
2023/10/05 11:14:45;;;;;;;11.63;3.42;;;;;;;14.36;64.92;99300.59;4883469;29;20041;-87
2023/10/05 11:17:46;;;;;;;9.85;3.25;;;;;;;14.44;64.93;99297.75;4884557;29;20139;-89
2023/10/05 11:20:26;;;;;;;7.40;3.35;;;;;;;14.32;64.91;99279.25;4887727;29;20138;-87
2023/10/05 11:23:03;;;;;;;12.57;3.60;;;;;;;14.26;66.62;99277.06;4879795;29;20045;-85
2023/10/05 11:25:35;;;;;;;11.48;3.50;;;;;;;14.41;67.64;99286.63;4881382;29;20093;-86
2023/10/05 11:28:08;;;;;;;13.82;3.55;;;;;;;14.09;67.38;99250.53;4883791;29;20059;-87
2023/10/05 11:30:41;;;;;;;12.85;3.78;;;;;;;14.38;66.53;99299.09;4879685;29;20044;-85
2023/10/05 11:33:17;;;;;;;10.68;3.85;;;;;;;14.30;64.60;99284.31;4848467;29;20057;-86
2023/10/05 11:35:49;;;;;;;9.25;3.58;;;;;;;14.40;64.64;99293.25;4876056;29;20040;-85
2023/10/05 11:38:26;;;;;;;9.25;3.55;;;;;;;14.34;65.79;99295.44;4871594;29;20063;-86
2023/10/05 11:40:55;;;;;;;13.15;3.97;;;;;;;14.32;66.17;99298.50;4869971;29;20071;-87
2023/10/05 11:43:34;;;;;;;11.65;4.03;;;;;;;14.30;66.45;99306.31;4870632;29;20076;-86
2023/10/05 11:48:55;;;;;;;10.30;3.78;;;;;;;14.19;67.89;99293.31;4871943;29;20041;-88
2023/10/05 11:51:41;;;;;;;10.68;3.75;;;;;;;14.29;66.60;99293.69;4900250;29;20454;-89
2023/10/05 11:54:12;;;;;;;13.73;4.15;;;;;;;14.40;66.13;99290.50;4897802;29;20041;-87
2023/10/05 11:56:41;;;;;;;7.97;3.35;;;;;;;14.16;67.13;99245.28;4864609;29;20063;-86
2023/10/05 11:59:10;;;;;;;9.95;3.90;;;;;;;14.44;66.77;99277.69;4901542;29;20045;-85
2023/10/05 12:01:44;;;;;;;12.43;3.42;;;;;;;14.25;67.03;99261.72;4872055;29;20070;-88
2023/10/05 12:04:12;;;;;;;14.65;3.78;;;;;;;14.41;66.28;99286.63;4868188;29;20049;-87
2023/10/05 12:06:39;;;;;;;12.53;3.80;;;;;;;14.40;67.06;99282.25;4868024;29;20041;-88
2023/10/05 12:12:05;;;;;;;10.57;3.65;;;;;;;14.12;65.22;99254.56;4904183;29;20040;-87
2023/10/05 12:14:52;;;;;;;10.10;3.80;;;;;;;14.23;67.06;99272.22;4856263;29;20091;-87
2023/10/05 12:17:29;;;;;;;12.73;3.72;;;;;;;14.02;65.32;99251.09;4871963;29;20586;-88
2023/10/05 12:19:55;;;;;;;8.52;3.13;;;;;;;14.25;62.92;99276.25;4885840;29;20063;-86
2023/10/05 12:22:21;;;;;;;10.88;2.95;;;;;;;14.01;62.59;99235.75;4871847;29;20037;-86
2023/10/05 12:24:50;;;;;;;9.98;4.40;;;;;;;14.28;62.65;99247.28;4862089;29;20053;-89
2023/10/05 12:27:22;;;;;;;15.88;5.68;;;;;;;14.59;62.46;99273.53;4862193;29;20452;-88
2023/10/05 12:29:48;;;;;;;14.70;6.30;;;;;;;14.36;61.68;99227.13;4879163;29;20041;-87
2023/10/05 12:32:15;;;;;;;12.02;4.85;;;;;;;14.77;62.24;99278.50;4850734;29;20052;-89
2023/10/05 12:34:44;;;;;;;15.98;4.90;;;;;;;14.66;61.28;99246.25;4894208;29;20056;-87
2023/10/05 12:37:17;;;;;;;18.40;3.92;;;;;;;14.97;60.50;99281.50;4904034;29;20045;-92
2023/10/05 12:40:17;;;;;;;12.80;3.25;;;;;;;14.72;59.56;99240.19;4900382;29;20139;-89
2023/10/05 12:42:54;;;;;;;4.93;3.00;;;;;;;14.81;60.59;99270.34;4873750;29;20045;-87
2023/10/05 12:45:22;;;;;;;7.63;3.80;;;;;;;14.71;60.56;99260.59;4860303;29;20132;-87
2023/10/05 12:47:54;;;;;;;10.13;4.70;;;;;;;14.40;60.92;99216.25;4854429;29;20149;-88
2023/10/05 12:50:24;;;;;;;16.02;5.85;;;;;;;14.67;61.02;99272.59;4848253;29;20091;-86
2023/10/05 12:52:51;;;;;;;13.18;4.95;;;;;;;14.66;61.96;99263.56;4880821;29;20117;-90
2023/10/05 12:56:14;;;;;;;12.52;4.22;;;;;;;14.66;60.94;99274.56;4883630;29;20041;-87
2023/10/05 13:01:41;;;;;;;13.05;4.32;;;;;;;13.98;62.27;99211.69;4810647;29;20268;-88
2023/10/05 13:04:35;;;;;;;24.65;4.55;;;;;;;14.36;62.76;99286.84;4814774;29;20054;-87
2023/10/05 13:07:04;;;;;;;12.40;3.70;;;;;;;14.32;62.46;99278.47;4799265;29;20169;-87
2023/10/05 13:09:32;;;;;;;10.40;3.28;;;;;;;14.33;62.01;99285.56;4808396;29;20133;-89
2023/10/05 13:12:07;;;;;;;14.50;4.10;;;;;;;14.32;61.33;99279.25;4775624;29;20541;-88
2023/10/05 13:14:34;;;;;;;11.00;4.40;;;;;;;14.07;62.93;99261.06;4789503;29;20094;-88
2023/10/05 13:17:00;;;;;;;11.32;5.50;;;;;;;14.18;63.80;99273.25;4813592;29;20050;-86
2023/10/05 13:19:27;;;;;;;10.90;5.47;;;;;;;14.04;64.66;99234.28;4780897;29;20063;-86
2023/10/05 13:21:53;;;;;;;14.93;6.03;;;;;;;14.33;64.27;99267.09;4805696;29;20035;-86
2023/10/05 13:24:20;;;;;;;15.47;8.03;;;;;;;14.37;64.32;99233.44;4780516;29;20042;-86
2023/10/05 13:26:52;;;;;;;15.00;5.72;;;;;;;14.30;62.29;99214.75;4796901;29;20066;-86
2023/10/05 13:29:42;;;;;;;20.45;7.57;;;;;;;14.58;62.67;99267.22;4798556;29;20053;-89
2023/10/05 13:32:16;;;;;;;16.67;7.32;;;;;;;14.39;62.76;99200.91;4778869;29;20253;-87
2023/10/05 13:34:45;;;;;;;16.48;6.65;;;;;;;14.23;62.12;99178.75;4819655;29;20465;-89
2023/10/05 13:37:14;;;;;;;11.85;6.45;;;;;;;14.25;62.32;99188.28;4801666;29;20063;-86
2023/10/05 13:39:44;;;;;;;20.08;6.60;;;;;;;14.72;61.67;99267.69;4884975;29;20029;-87
2023/10/05 13:42:11;;;;;;;20.38;5.45;;;;;;;14.66;62.48;99255.28;4872103;29;20145;-86
2023/10/05 13:44:40;;;;;;;9.82;4.40;;;;;;;14.54;61.77;99238.78;4881811;29;20072;-85
2023/10/05 13:47:09;;;;;;;18.63;4.57;;;;;;;14.63;62.68;99252.44;4881076;29;20052;-86
2023/10/05 13:49:41;;;;;;;21.55;7.20;;;;;;;14.39;62.64;99212.69;4860523;29;20052;-85
2023/10/05 13:52:09;;;;;;;19.27;7.30;;;;;;;14.76;62.96;99265.06;4877719;29;20045;-87
2023/10/05 13:54:36;;;;;;;13.60;5.95;;;;;;;14.63;62.44;99255.97;4866944;29;20037;-85
2023/10/05 13:57:03;;;;;;;12.73;4.82;;;;;;;14.30;62.27;99232.06;4889066;29;20041;-86
2023/10/05 13:59:29;;;;;;;13.07;4.53;;;;;;;14.44;62.37;99256.50;4900430;29;20111;-86
2023/10/05 14:02:00;;;;;;;19.38;5.50;;;;;;;14.14;62.38;99222.84;4902423;29;20487;-87
2023/10/05 14:04:30;;;;;;;19.05;6.18;;;;;;;14.05;62.68;99208.38;4905732;29;20047;-87
2023/10/05 14:07:02;;;;;;;26.95;11.98;;;;;;;14.32;63.75;99240.75;4899910;29;20044;-85
2023/10/05 14:09:33;;;;;;;24.90;10.23;;;;;;;14.14;63.50;99202.78;4882544;29;20045;-87
2023/10/05 14:12:03;;;;;;;18.60;8.65;;;;;;;14.47;64.20;99261.31;4888715;29;20516;-86
2023/10/05 14:14:32;;;;;;;15.40;7.72;;;;;;;14.13;64.59;99210.22;4884795;29;20839;-87
2023/10/05 14:17:15;;;;;;;17.27;9.60;;;;;;;14.13;64.31;99220.44;4862833;29;20056;-88
2023/10/05 14:20:11;;;;;;;20.50;9.07;;;;;;;14.08;65.24;99213.19;4900977;29;20048;-87
2023/10/05 14:22:42;;;;;;;23.88;6.50;;;;;;;13.45;64.93;99141.88;4885043;29;20562;-88
2023/10/05 14:25:25;;;;;;;19.08;5.90;;;;;;;13.87;65.66;99204.97;4885315;29;20041;-88
2023/10/05 14:28:50;;;;;;;23.08;8.38;;;;;;;13.89;66.05;99213.69;4886423;29;20060;-87
2023/10/05 14:31:47;;;;;;;36.00;10.70;;;;;;;14.08;67.14;99260.72;4860930;29;20051;-86
2023/10/05 14:34:41;;;;;;;75.60;18.80;;;;;;;13.56;67.30;99186.19;4892508;29;20033;-86
2023/10/05 14:37:09;;;;;;;78.05;20.63;;;;;;;13.57;67.61;99207.03;4855919;29;20255;-85
2023/10/05 14:39:36;;;;;;;136.30;38.70;;;;;;;13.54;68.67;99225.00;4898110;29;20062;-88
2023/10/05 14:42:04;;;;;;;221.85;64.15;;;;;;;13.31;70.35;99190.75;4885234;29;20051;-87